Time;durP1;ratioP1;P1;durP2;ratioP2;P2;SDS_P1;SDS_P2;PMS_P1;PMS_P2;Temp;Humidity;BMP_temperature;BMP_pressure;BME280_temperature;BME280_humidity;BME280_pressure;Samples;Min_cycle;Max_cycle;Signal;HPM_P1;HPM_P2
2022/04/18 00:01:08;;;;;;;4.57;2.70;;;;;;;;;;4943995;28;21980;-85
2022/04/18 00:04:12;;;;;;;3.87;2.50;;;;;;;;;;4944202;29;20544;-85
2022/04/18 00:07:17;;;;;;;3.50;2.33;;;;;;;;;;4932979;29;21150;-84
2022/04/18 00:10:21;;;;;;;3.80;2.63;;;;;;;;;;4944398;29;20547;-85
2022/04/18 00:13:25;;;;;;;4.03;2.53;;;;;;;;;;4944047;29;20563;-84
2022/04/18 00:16:29;;;;;;;4.13;2.90;;;;;;;;;;4932833;29;20599;-85
2022/04/18 00:19:33;;;;;;;5.47;2.10;;;;;;;;;;4943649;29;20607;-84
2022/04/18 00:22:38;;;;;;;4.47;2.47;;;;;;;;;;4944283;29;20654;-85
2022/04/18 00:25:42;;;;;;;4.67;3.10;;;;;;;;;;4933281;29;20544;-84
2022/04/18 00:28:46;;;;;;;5.53;2.77;;;;;;;;;;4933044;29;20548;-84
2022/04/18 00:31:50;;;;;;;5.10;2.67;;;;;;;;;;4932926;29;20626;-84
2022/04/18 00:34:54;;;;;;;4.70;2.80;;;;;;;;;;4932983;29;20548;-84
2022/04/18 00:37:59;;;;;;;3.37;2.30;;;;;;;;;;4932630;29;20607;-85
2022/04/18 00:41:03;;;;;;;4.00;2.60;;;;;;;;;;4944068;28;20551;-84
2022/04/18 00:44:07;;;;;;;3.93;2.40;;;;;;;;;;4936378;29;20552;-85
2022/04/18 00:47:11;;;;;;;6.03;2.97;;;;;;;;;;4947797;29;20539;-84
2022/04/18 00:50:15;;;;;;;3.70;2.70;;;;;;;;;;4947516;29;20555;-84
2022/04/18 00:53:19;;;;;;;3.80;2.73;;;;;;;;;;4947394;29;20544;-84
2022/04/18 00:56:25;;;;;;;3.83;2.70;;;;;;;;;;4947249;29;20539;-84
2022/04/18 00:59:31;;;;;;;2.83;2.43;;;;;;;;;;4958613;29;20540;-86
2022/04/18 01:02:36;;;;;;;2.60;2.20;;;;;;;;;;4947128;29;20622;-85
2022/04/18 01:05:40;;;;;;;4.07;2.90;;;;;;;;;;4946771;29;20606;-84
2022/04/18 01:08:47;;;;;;;4.57;2.87;;;;;;;;;;4935676;29;20603;-84
2022/04/18 01:11:51;;;;;;;3.50;2.60;;;;;;;;;;4946872;29;20622;-84
2022/04/18 01:14:55;;;;;;;7.07;2.60;;;;;;;;;;4947411;29;20598;-84
2022/04/18 01:18:18;;;;;;;3.63;2.67;;;;;;;;;;4949179;29;20599;-85
2022/04/18 01:21:40;;;;;;;5.97;2.90;;;;;;;;;;4957564;28;20642;-86
2022/04/18 01:31:50;;;;;;;4.97;2.73;;;;;;;;;;4946653;29;20626;-85
2022/04/18 01:34:57;;;;;;;4.03;2.50;;;;;;;;;;4935458;29;21100;-84
2022/04/18 01:38:01;;;;;;;3.67;2.63;;;;;;;;;;4946144;29;20647;-84
2022/04/18 01:41:06;;;;;;;5.90;3.00;;;;;;;;;;4957045;28;20544;-86
2022/04/18 01:44:10;;;;;;;3.67;2.43;;;;;;;;;;4946172;29;20543;-84
2022/04/18 01:47:14;;;;;;;3.73;2.67;;;;;;;;;;4934927;29;20599;-84
2022/04/18 01:50:18;;;;;;;5.40;2.77;;;;;;;;;;4946184;29;21078;-86
2022/04/18 01:53:23;;;;;;;7.83;3.37;;;;;;;;;;4945326;28;20547;-85
2022/04/18 01:56:27;;;;;;;3.90;2.83;;;;;;;;;;4935480;29;20548;-84
2022/04/18 01:59:32;;;;;;;3.47;2.80;;;;;;;;;;4935401;29;20532;-84
2022/04/18 02:02:36;;;;;;;5.23;2.90;;;;;;;;;;4946010;29;20618;-86
2022/04/18 02:05:44;;;;;;;5.93;2.93;;;;;;;;;;4946030;29;20559;-85
2022/04/18 02:08:48;;;;;;;4.00;2.70;;;;;;;;;;4945766;29;21075;-86
2022/04/18 02:11:55;;;;;;;3.97;2.70;;;;;;;;;;4945881;29;20627;-86
2022/04/18 02:15:01;;;;;;;4.57;2.90;;;;;;;;;;4956987;29;21087;-85
2022/04/18 02:18:08;;;;;;;4.70;2.93;;;;;;;;;;4934702;29;20647;-86
2022/04/18 02:21:13;;;;;;;4.07;2.97;;;;;;;;;;4933913;28;20643;-85
2022/04/18 02:24:17;;;;;;;4.20;2.70;;;;;;;;;;4934582;29;20543;-86
2022/04/18 02:27:21;;;;;;;6.23;2.80;;;;;;;;;;4934545;29;20555;-86
2022/04/18 02:30:27;;;;;;;4.50;2.60;;;;;;;;;;4945573;29;20869;-86
2022/04/18 02:33:31;;;;;;;3.10;2.50;;;;;;;;;;4945574;29;20552;-85
2022/04/18 02:36:35;;;;;;;3.67;2.53;;;;;;;;;;4944965;29;20599;-86
2022/04/18 02:39:40;;;;;;;4.93;2.80;;;;;;;;;;4945244;29;20591;-86
2022/04/18 02:42:44;;;;;;;3.60;2.47;;;;;;;;;;4945114;29;20622;-86
2022/04/18 02:45:50;;;;;;;4.27;3.00;;;;;;;;;;4934690;29;20547;-85
2022/04/18 02:49:01;;;;;;;5.07;3.13;;;;;;;;;;4955753;29;21169;-85
2022/04/18 02:52:06;;;;;;;5.07;2.97;;;;;;;;;;4934546;29;21180;-86
2022/04/18 02:55:11;;;;;;;3.43;2.80;;;;;;;;;;4934257;29;20543;-86
2022/04/18 02:58:15;;;;;;;4.57;3.10;;;;;;;;;;4933875;29;21154;-86
2022/04/18 03:01:21;;;;;;;3.13;2.50;;;;;;;;;;4934656;28;20630;-85
2022/04/18 03:04:25;;;;;;;3.70;2.83;;;;;;;;;;4933904;28;20543;-85
2022/04/18 03:07:29;;;;;;;3.33;2.63;;;;;;;;;;4944847;29;20880;-86
2022/04/18 03:14:02;;;;;;;4.97;3.10;;;;;;;;;;4945351;29;20548;-84
2022/04/18 03:17:13;;;;;;;5.97;3.10;;;;;;;;;;4955600;29;20932;-86
2022/04/18 03:20:18;;;;;;;5.30;3.17;;;;;;;;;;4934233;29;20539;-85
2022/04/18 03:23:23;;;;;;;9.70;3.10;;;;;;;;;;4934616;29;20611;-84
2022/04/18 03:26:46;;;;;;;3.40;2.53;;;;;;;;;;4947602;29;21103;-84
2022/04/18 03:29:54;;;;;;;4.00;3.03;;;;;;;;;;4945882;29;20544;-84
2022/04/18 03:33:04;;;;;;;4.73;3.13;;;;;;;;;;4934552;29;20623;-86
2022/04/18 03:42:54;;;;;;;3.90;3.03;;;;;;;;;;4944438;29;20626;-84
2022/04/18 03:45:59;;;;;;;5.03;3.13;;;;;;;;;;4944780;29;20544;-86
2022/04/18 03:49:03;;;;;;;4.93;3.13;;;;;;;;;;4944804;29;20535;-84
2022/04/18 03:52:09;;;;;;;3.63;3.00;;;;;;;;;;4933759;29;20635;-86
2022/04/18 03:55:15;;;;;;;6.33;3.60;;;;;;;;;;4933524;29;20594;-86
2022/04/18 03:58:19;;;;;;;3.67;3.07;;;;;;;;;;4944205;29;20607;-83
2022/04/18 04:01:23;;;;;;;4.50;3.10;;;;;;;;;;4944093;28;20614;-86
2022/04/18 04:04:28;;;;;;;6.63;3.00;;;;;;;;;;4944066;29;20551;-84
2022/04/18 04:07:35;;;;;;;6.50;3.17;;;;;;;;;;4955765;29;20544;-84
2022/04/18 04:10:57;;;;;;;5.90;3.00;;;;;;;;;;4935791;28;20543;-85
2022/04/18 04:14:04;;;;;;;5.70;2.87;;;;;;;;;;4944739;29;20547;-86
2022/04/18 04:17:08;;;;;;;4.13;3.03;;;;;;;;;;4945080;29;21070;-84
2022/04/18 04:20:13;;;;;;;6.97;2.93;;;;;;;;;;4937168;29;20552;-84
2022/04/18 04:23:17;;;;;;;4.70;2.77;;;;;;;;;;4937186;29;21062;-84
2022/04/18 04:26:57;;;;;;;3.87;3.30;;;;;;;;;;4959069;29;20555;-85
2022/04/18 04:30:02;;;;;;;6.17;3.27;;;;;;;;;;4947681;29;20943;-86
2022/04/18 04:33:18;;;;;;;5.60;3.20;;;;;;;;;;4947715;29;20543;-86
2022/04/18 04:36:25;;;;;;;6.10;2.93;;;;;;;;;;4947592;29;20559;-86
2022/04/18 04:39:32;;;;;;;4.73;3.00;;;;;;;;;;4948075;29;20599;-84
2022/04/18 04:42:36;;;;;;;4.10;2.93;;;;;;;;;;4935870;29;20643;-85
2022/04/18 04:45:40;;;;;;;7.37;3.40;;;;;;;;;;4936593;29;20908;-84
2022/04/18 04:49:05;;;;;;;8.30;2.80;;;;;;;;;;4950245;29;20881;-86
2022/04/18 04:52:09;;;;;;;3.70;3.00;;;;;;;;;;4935677;29;20638;-85
2022/04/18 04:55:13;;;;;;;4.57;3.33;;;;;;;;;;4946850;29;20610;-84
2022/04/18 04:58:22;;;;;;;5.17;3.10;;;;;;;;;;4946762;29;20611;-86
2022/04/18 05:01:46;;;;;;;4.67;3.00;;;;;;;;;;4946764;28;20631;-84
2022/04/18 05:04:51;;;;;;;3.90;2.90;;;;;;;;;;4936269;29;20556;-85
2022/04/18 05:07:55;;;;;;;4.00;2.77;;;;;;;;;;4946709;29;20543;-86
2022/04/18 05:11:02;;;;;;;8.53;2.90;;;;;;;;;;4935930;28;21165;-84
2022/04/18 05:14:19;;;;;;;3.63;3.20;;;;;;;;;;4948368;29;20544;-86
2022/04/18 05:17:33;;;;;;;5.00;3.00;;;;;;;;;;4957684;29;20892;-86
2022/04/18 05:20:47;;;;;;;5.50;2.70;;;;;;;;;;4947971;29;20544;-85
2022/04/18 05:23:53;;;;;;;4.33;3.03;;;;;;;;;;4935712;29;20606;-85
2022/04/18 05:26:57;;;;;;;3.70;2.73;;;;;;;;;;4935704;29;20551;-85
2022/04/18 05:30:01;;;;;;;4.13;2.87;;;;;;;;;;4936024;29;20880;-85
2022/04/18 05:33:07;;;;;;;3.63;2.53;;;;;;;;;;4958691;28;20749;-86
2022/04/18 05:36:19;;;;;;;3.60;2.93;;;;;;;;;;4946867;29;20548;-87
2022/04/18 05:39:24;;;;;;;5.27;3.40;;;;;;;;;;4935389;29;20603;-88
2022/04/18 05:42:28;;;;;;;7.63;4.53;;;;;;;;;;4935237;29;20975;-87
2022/04/18 05:45:38;;;;;;;10.33;6.47;;;;;;;;;;4948731;29;20544;-86
2022/04/18 05:48:49;;;;;;;7.27;5.13;;;;;;;;;;4939660;29;20603;-87
2022/04/18 05:51:53;;;;;;;9.00;5.10;;;;;;;;;;4935491;29;20615;-86
2022/04/18 05:54:59;;;;;;;7.27;4.90;;;;;;;;;;4937909;29;20548;-86
2022/04/18 05:58:04;;;;;;;7.70;4.50;;;;;;;;;;4947151;29;20602;-86
2022/04/18 06:01:08;;;;;;;7.47;4.53;;;;;;;;;;4945560;28;20588;-86
2022/04/18 06:04:12;;;;;;;9.23;4.67;;;;;;;;;;4934247;29;20540;-87
2022/04/18 06:07:20;;;;;;;5.97;4.30;;;;;;;;;;4946655;29;20540;-85
2022/04/18 06:10:41;;;;;;;5.67;4.30;;;;;;;;;;4946550;29;20540;-86
2022/04/18 06:14:08;;;;;;;7.67;3.97;;;;;;;;;;4938262;29;20548;-85
2022/04/18 06:17:15;;;;;;;6.77;4.20;;;;;;;;;;4945881;29;20880;-85
2022/04/18 06:20:20;;;;;;;5.33;3.67;;;;;;;;;;4945497;29;20654;-85
2022/04/18 06:23:25;;;;;;;6.00;4.00;;;;;;;;;;4944910;29;20603;-85
2022/04/18 06:26:49;;;;;;;5.07;3.77;;;;;;;;;;4947792;29;20180;-86
2022/04/18 06:29:52;;;;;;;4.63;3.47;;;;;;;;;;4944858;29;20195;-85
2022/04/18 06:32:59;;;;;;;4.90;3.87;;;;;;;;;;4934499;29;20690;-85
2022/04/18 06:36:04;;;;;;;7.17;4.13;;;;;;;;;;4945875;29;20175;-87
2022/04/18 06:39:13;;;;;;;4.77;3.40;;;;;;;;;;4944982;28;20544;-87
2022/04/18 06:42:18;;;;;;;4.77;3.20;;;;;;;;;;4956369;28;20227;-85
2022/04/18 06:45:28;;;;;;;5.77;3.07;;;;;;;;;;4935639;29;20191;-86
2022/04/18 06:48:33;;;;;;;5.27;3.23;;;;;;;;;;4945921;29;20192;-87
2022/04/18 06:52:05;;;;;;;4.43;2.53;;;;;;;;;;4956023;28;20215;-85
2022/04/18 06:56:58;;;;;;;4.50;2.60;;;;;;;;;;4956490;29;20184;-85
2022/04/18 06:58:52;;;;;;;3.37;2.50;;;;;;;;;;4947184;29;20227;-86
2022/04/18 07:01:59;;;;;;;3.90;2.30;;;;;;;;;;4945141;29;20215;-85
2022/04/18 07:05:03;;;;;;;4.47;2.57;;;;;;;;;;4945944;29;20184;-86
2022/04/18 07:08:08;;;;;;;3.80;2.50;;;;;;;;;;4944669;29;20183;-87
2022/04/18 07:11:13;;;;;;;4.93;2.50;;;;;;;;;;4933692;28;20559;-85
2022/04/18 07:14:18;;;;;;;3.43;2.23;;;;;;;;;;4945184;29;20180;-85
2022/04/18 07:17:25;;;;;;;3.90;2.70;;;;;;;;;;4944813;29;20195;-85
2022/04/18 07:20:31;;;;;;;4.57;2.43;;;;;;;;;;4933847;29;20207;-85
2022/04/18 07:23:36;;;;;;;3.60;2.20;;;;;;;;;;4944534;29;20516;-88
2022/04/18 07:26:41;;;;;;;5.50;2.80;;;;;;;;;;4934028;29;20175;-85
2022/04/18 07:29:46;;;;;;;5.30;1.93;;;;;;;;;;4945308;29;20175;-85
2022/04/18 07:32:51;;;;;;;4.03;2.20;;;;;;;;;;4956877;28;20227;-85
2022/04/18 07:35:57;;;;;;;4.07;2.13;;;;;;;;;;4936762;29;20183;-84
2022/04/18 07:39:01;;;;;;;4.67;2.13;;;;;;;;;;4933329;29;20562;-85
2022/04/18 07:42:20;;;;;;;2.63;1.93;;;;;;;;;;4936650;29;20223;-86
2022/04/18 07:45:24;;;;;;;2.67;2.30;;;;;;;;;;4933883;29;20200;-86
2022/04/18 07:48:30;;;;;;;3.33;1.93;;;;;;;;;;4944199;29;20179;-86
2022/04/18 07:51:43;;;;;;;4.37;2.00;;;;;;;;;;4934598;28;20211;-86
2022/04/18 07:55:01;;;;;;;3.07;2.00;;;;;;;;;;4949535;29;20524;-86
2022/04/18 07:58:06;;;;;;;2.67;1.90;;;;;;;;;;4940367;29;20188;-86
2022/04/18 08:01:10;;;;;;;3.07;2.13;;;;;;;;;;4950194;28;20231;-88
2022/04/18 08:04:15;;;;;;;2.77;1.70;;;;;;;;;;4962236;29;20188;-87
2022/04/18 08:07:19;;;;;;;2.90;1.70;;;;;;;;;;4950098;29;20175;-86
2022/04/18 08:10:24;;;;;;;2.80;1.90;;;;;;;;;;4938571;29;20175;-88
2022/04/18 08:13:28;;;;;;;2.57;1.60;;;;;;;;;;4960526;29;20635;-87
2022/04/18 08:16:50;;;;;;;2.93;2.10;;;;;;;;;;4960250;29;20180;-86
2022/04/18 08:20:08;;;;;;;7.27;1.70;;;;;;;;;;4948359;29;20556;-89
2022/04/18 08:23:12;;;;;;;2.10;1.60;;;;;;;;;;4959082;28;20586;-86
2022/04/18 08:26:55;;;;;;;3.60;1.70;;;;;;;;;;4960701;28;20678;-86
2022/04/18 08:30:05;;;;;;;3.07;1.70;;;;;;;;;;4954274;28;20191;-88
2022/04/18 08:33:17;;;;;;;2.43;1.70;;;;;;;;;;4948508;29;20184;-86
2022/04/18 08:36:21;;;;;;;2.20;1.60;;;;;;;;;;4937256;29;20199;-85
2022/04/18 08:39:26;;;;;;;2.57;1.47;;;;;;;;;;4959818;29;20208;-83
2022/04/18 08:42:42;;;;;;;3.53;1.90;;;;;;;;;;4947904;29;20219;-86
2022/04/18 08:45:47;;;;;;;2.77;1.90;;;;;;;;;;4937338;29;20183;-83
2022/04/18 08:55:57;;;;;;;3.10;1.50;;;;;;;;;;4959467;29;20188;-87
2022/04/18 08:59:08;;;;;;;1.63;1.40;;;;;;;;;;4947794;29;20184;-83
2022/04/18 09:02:12;;;;;;;4.73;1.63;;;;;;;;;;4936959;29;20215;-86
2022/04/18 09:05:37;;;;;;;2.80;1.63;;;;;;;;;;4949002;29;20192;-84
2022/04/18 09:08:51;;;;;;;2.83;1.43;;;;;;;;;;4935695;29;20199;-83
2022/04/18 09:11:55;;;;;;;1.93;1.67;;;;;;;;;;4946294;29;20215;-84
2022/04/18 09:15:04;;;;;;;2.13;1.40;;;;;;;;;;4946580;29;20184;-84
2022/04/18 09:18:10;;;;;;;1.77;1.43;;;;;;;;;;4945989;29;20199;-85
2022/04/18 09:21:18;;;;;;;1.90;1.60;;;;;;;;;;4962071;22;20231;-82
2022/04/18 09:24:32;;;;;;;1.73;1.40;;;;;;;;;;4964837;28;20250;-88
2022/04/18 09:27:53;;;;;;;2.10;1.47;;;;;;;;;;4956103;28;20183;-85
2022/04/18 09:31:08;;;;;;;2.10;1.23;;;;;;;;;;4967136;28;20523;-85
2022/04/18 09:34:20;;;;;;;2.83;1.67;;;;;;;;;;4946582;29;20187;-89
2022/04/18 09:37:28;;;;;;;2.50;1.33;;;;;;;;;;4934826;29;20187;-87
2022/04/18 09:40:33;;;;;;;2.37;1.00;;;;;;;;;;4934691;29;20212;-87
2022/04/18 09:43:40;;;;;;;3.97;1.53;;;;;;;;;;4934698;29;20246;-87
2022/04/18 09:46:45;;;;;;;2.20;1.50;;;;;;;;;;4934230;29;20203;-87
2022/04/18 09:49:56;;;;;;;2.23;1.67;;;;;;;;;;4945802;29;20179;-87
2022/04/18 09:53:06;;;;;;;2.53;1.40;;;;;;;;;;4934944;29;20219;-88
2022/04/18 09:56:17;;;;;;;1.70;1.20;;;;;;;;;;4945647;29;20203;-87
2022/04/18 09:59:21;;;;;;;2.83;1.43;;;;;;;;;;4956620;29;20523;-87
2022/04/18 10:02:27;;;;;;;4.03;1.20;;;;;;;;;;4945472;29;20215;-88
2022/04/18 10:05:32;;;;;;;5.13;1.50;;;;;;;;;;4934406;29;20200;-87
2022/04/18 10:08:37;;;;;;;2.20;1.50;;;;;;;;;;4945130;29;20203;-87
2022/04/18 10:11:43;;;;;;;2.10;1.33;;;;;;;;;;4933705;28;20220;-88
2022/04/18 10:14:47;;;;;;;1.97;1.33;;;;;;;;;;4944308;28;20188;-88
2022/04/18 10:17:51;;;;;;;2.00;1.43;;;;;;;;;;4945189;29;20180;-88
2022/04/18 10:21:07;;;;;;;1.97;1.70;;;;;;;;;;4933804;29;20207;-88
2022/04/18 10:24:49;;;;;;;2.33;1.70;;;;;;;;;;4944792;29;20651;-88
2022/04/18 10:28:10;;;;;;;3.37;1.73;;;;;;;;;;4944844;29;20179;-88
2022/04/18 10:31:23;;;;;;;3.07;1.50;;;;;;;;;;4945330;29;20180;-88
2022/04/18 10:34:31;;;;;;;4.97;1.97;;;;;;;;;;4944879;29;20187;-85
2022/04/18 10:37:41;;;;;;;1.70;1.50;;;;;;;;;;4957560;29;20176;-85
2022/04/18 10:40:45;;;;;;;2.67;1.90;;;;;;;;;;4945249;29;20211;-84
2022/04/18 10:43:58;;;;;;;3.03;1.80;;;;;;;;;;4946519;29;20183;-85
2022/04/18 10:47:03;;;;;;;5.90;1.87;;;;;;;;;;4957688;29;20184;-85
2022/04/18 10:50:20;;;;;;;4.50;1.83;;;;;;;;;;4945938;29;20180;-84
2022/04/18 10:53:24;;;;;;;1.53;1.30;;;;;;;;;;4956618;28;20223;-85
2022/04/18 10:56:50;;;;;;;1.77;1.53;;;;;;;;;;4945553;29;20196;-85
2022/04/18 10:59:55;;;;;;;1.57;1.30;;;;;;;;;;4945862;29;20179;-85
2022/04/18 11:02:59;;;;;;;2.53;1.70;;;;;;;;;;4955989;28;20223;-85
2022/04/18 11:06:36;;;;;;;1.70;1.23;;;;;;;;;;4945469;29;20199;-85
2022/04/18 11:09:45;;;;;;;1.83;1.50;;;;;;;;;;4955939;29;20187;-85
2022/04/18 11:12:50;;;;;;;1.97;1.57;;;;;;;;;;4945612;29;20219;-85
2022/04/18 11:16:03;;;;;;;2.00;1.40;;;;;;;;;;4944733;29;20203;-85
2022/04/18 11:19:13;;;;;;;4.70;1.50;;;;;;;;;;4934597;29;20184;-85
2022/04/18 11:22:22;;;;;;;3.23;1.27;;;;;;;;;;4945020;29;20220;-85
2022/04/18 11:25:26;;;;;;;1.80;1.33;;;;;;;;;;4934767;28;20179;-85
2022/04/18 11:28:33;;;;;;;3.07;1.40;;;;;;;;;;4967193;28;20199;-85
2022/04/18 11:31:38;;;;;;;2.07;1.27;;;;;;;;;;4945538;28;20211;-85
2022/04/18 11:34:44;;;;;;;2.17;1.50;;;;;;;;;;4945405;29;20204;-85
2022/04/18 11:37:48;;;;;;;2.30;1.57;;;;;;;;;;4944768;29;20195;-84
2022/04/18 11:40:53;;;;;;;2.43;1.50;;;;;;;;;;4945557;29;20673;-85
2022/04/18 11:43:58;;;;;;;1.93;1.17;;;;;;;;;;4956404;29;20179;-85
2022/04/18 11:47:06;;;;;;;3.87;1.53;;;;;;;;;;4926468;29;20647;-85
2022/04/18 11:50:11;;;;;;;1.93;1.30;;;;;;;;;;4947934;29;20181;-85
2022/04/18 11:53:15;;;;;;;4.60;3.43;;;;;;;;;;4915333;29;20215;-85
2022/04/18 11:56:22;;;;;;;1.77;1.30;;;;;;;;;;4925495;29;20517;-84
2022/04/18 11:59:28;;;;;;;2.60;1.30;;;;;;;;;;4938733;29;20204;-85
2022/04/18 12:09:25;;;;;;;2.20;1.23;;;;;;;;;;4935327;29;20184;-85
2022/04/18 12:12:31;;;;;;;2.80;1.50;;;;;;;;;;4951328;28;20228;-85
2022/04/18 12:15:36;;;;;;;3.27;1.30;;;;;;;;;;4935881;29;20181;-84
2022/04/18 12:18:40;;;;;;;3.33;1.30;;;;;;;;;;4925637;29;20200;-85
2022/04/18 12:21:50;;;;;;;1.50;1.20;;;;;;;;;;4924211;29;20227;-84
2022/04/18 12:24:58;;;;;;;3.67;1.20;;;;;;;;;;4946480;29;20189;-84
2022/04/18 12:28:05;;;;;;;2.33;1.67;;;;;;;;;;4946644;29;20184;-85
2022/04/18 12:31:10;;;;;;;4.83;1.60;;;;;;;;;;4924974;29;20180;-84
2022/04/18 12:34:19;;;;;;;1.83;1.50;;;;;;;;;;4946495;29;20540;-84
2022/04/18 12:37:26;;;;;;;2.07;1.30;;;;;;;;;;4946375;29;20192;-85
2022/04/18 12:40:45;;;;;;;2.63;1.60;;;;;;;;;;4939640;29;20556;-85
2022/04/18 12:43:49;;;;;;;1.57;1.30;;;;;;;;;;4929375;29;20189;-85
2022/04/18 12:46:54;;;;;;;2.53;1.33;;;;;;;;;;4946785;29;20195;-85
2022/04/18 12:50:05;;;;;;;2.30;1.33;;;;;;;;;;4958462;29;20180;-84
2022/04/18 12:53:09;;;;;;;1.93;1.40;;;;;;;;;;4939429;29;20572;-83
2022/04/18 12:56:23;;;;;;;1.30;1.20;;;;;;;;;;4947172;29;20184;-83
2022/04/18 12:59:30;;;;;;;2.07;1.30;;;;;;;;;;4947088;29;20187;-85
2022/04/18 13:02:34;;;;;;;2.60;1.43;;;;;;;;;;4946586;29;20227;-83
2022/04/18 13:05:47;;;;;;;2.33;1.33;;;;;;;;;;4958411;29;20199;-83
2022/04/18 13:09:09;;;;;;;1.37;1.27;;;;;;;;;;4959019;29;20184;-83
2022/04/18 13:12:14;;;;;;;1.93;1.30;;;;;;;;;;4948265;28;20223;-83
2022/04/18 13:15:24;;;;;;;3.60;1.20;;;;;;;;;;4947821;29;20180;-84
2022/04/18 13:18:28;;;;;;;1.63;1.10;;;;;;;;;;4936436;29;20180;-84
2022/04/18 13:21:32;;;;;;;1.93;1.50;;;;;;;;;;4945897;28;20579;-83
2022/04/18 13:24:36;;;;;;;1.67;1.10;;;;;;;;;;4946233;29;20191;-84
2022/04/18 13:27:41;;;;;;;1.53;1.20;;;;;;;;;;4957391;29;20203;-84
2022/04/18 13:30:47;;;;;;;1.73;1.10;;;;;;;;;;4956802;29;20195;-84
2022/04/18 13:33:52;;;;;;;2.50;1.33;;;;;;;;;;4946688;29;20180;-84
2022/04/18 13:36:56;;;;;;;2.17;1.20;;;;;;;;;;4946627;29;20635;-84
2022/04/18 13:40:00;;;;;;;1.37;1.27;;;;;;;;;;4967969;28;20187;-84
2022/04/18 13:43:04;;;;;;;2.23;1.20;;;;;;;;;;4946052;29;20211;-84
2022/04/18 13:46:08;;;;;;;2.03;1.33;;;;;;;;;;4957371;29;20203;-84
2022/04/18 13:49:13;;;;;;;2.03;1.20;;;;;;;;;;4957338;28;20183;-85
2022/04/18 13:52:18;;;;;;;1.87;1.33;;;;;;;;;;4946126;29;20215;-84
2022/04/18 13:55:22;;;;;;;1.93;1.27;;;;;;;;;;4958860;29;20188;-85
2022/04/18 13:58:26;;;;;;;1.20;1.10;;;;;;;;;;4957136;29;20176;-85
2022/04/18 14:01:30;;;;;;;2.00;1.30;;;;;;;;;;4946320;28;20207;-85
2022/04/18 14:04:35;;;;;;;2.07;1.30;;;;;;;;;;4946327;29;20203;-85
2022/04/18 14:07:39;;;;;;;1.60;1.20;;;;;;;;;;4967494;28;20265;-82
2022/04/18 14:10:43;;;;;;;1.20;1.10;;;;;;;;;;4967197;28;20199;-82
2022/04/18 14:13:47;;;;;;;1.67;1.50;;;;;;;;;;4945221;29;20180;-82
2022/04/18 14:20:25;;;;;;;1.30;1.00;;;;;;;;;;4956185;29;20179;-82
2022/04/18 14:23:29;;;;;;;2.60;1.53;;;;;;;;;;4955758;29;20220;-82
2022/04/18 14:26:34;;;;;;;1.93;1.17;;;;;;;;;;4955975;29;20188;-82
2022/04/18 14:29:38;;;;;;;2.63;1.13;;;;;;;;;;4955927;29;20191;-82
2022/04/18 14:32:44;;;;;;;2.73;1.40;;;;;;;;;;4956623;29;20682;-82
2022/04/18 14:35:48;;;;;;;2.10;1.37;;;;;;;;;;4956642;29;20184;-85
2022/04/18 14:38:52;;;;;;;1.80;1.30;;;;;;;;;;4956612;29;20183;-86
2022/04/18 14:41:56;;;;;;;1.30;1.17;;;;;;;;;;4945979;28;20231;-86
2022/04/18 14:45:01;;;;;;;1.63;1.27;;;;;;;;;;4934424;29;20544;-86
2022/04/18 14:48:05;;;;;;;1.60;1.20;;;;;;;;;;4934179;29;20179;-86
2022/04/18 14:51:09;;;;;;;2.03;1.10;;;;;;;;;;4945152;29;20184;-86
2022/04/18 14:54:14;;;;;;;1.33;0.93;;;;;;;;;;4944967;29;20179;-82
2022/04/18 14:57:19;;;;;;;1.87;1.07;;;;;;;;;;4944520;29;20187;-82
2022/04/18 15:00:23;;;;;;;2.23;1.33;;;;;;;;;;4955828;28;20184;-82
2022/04/18 15:03:28;;;;;;;2.83;1.40;;;;;;;;;;4956362;28;20215;-81
2022/04/18 15:06:32;;;;;;;3.43;1.60;;;;;;;;;;4945292;29;20203;-82
2022/04/18 15:09:36;;;;;;;2.53;1.00;;;;;;;;;;4967716;28;20176;-84
2022/04/18 15:12:40;;;;;;;2.10;1.30;;;;;;;;;;4946039;29;20211;-85
2022/04/18 15:15:44;;;;;;;1.73;1.20;;;;;;;;;;4945404;29;20179;-85
2022/04/18 15:18:48;;;;;;;2.23;1.43;;;;;;;;;;4946245;29;20203;-85
2022/04/18 15:21:53;;;;;;;2.03;1.20;;;;;;;;;;4974238;23;20250;-86
2022/04/18 15:24:57;;;;;;;4.53;1.40;;;;;;;;;;4994951;28;20178;-85
2022/04/18 15:28:01;;;;;;;2.23;1.20;;;;;;;;;;4983147;28;20533;-87
2022/04/18 15:34:27;;;;;;;1.87;1.20;;;;;;;;;;4974436;28;20191;-86
2022/04/18 15:37:32;;;;;;;1.77;1.30;;;;;;;;;;4963046;28;20203;-87
2022/04/18 15:40:36;;;;;;;1.30;1.00;;;;;;;;;;4962960;28;20198;-87
2022/04/18 15:43:42;;;;;;;1.57;1.17;;;;;;;;;;4963103;28;20210;-85
2022/04/18 15:46:46;;;;;;;2.23;1.20;;;;;;;;;;4952053;28;20546;-85
2022/04/18 15:49:50;;;;;;;2.30;1.20;;;;;;;;;;4963050;28;20179;-86
2022/04/18 15:52:55;;;;;;;12.30;7.17;;;;;;;;;;4951721;28;20218;-85
2022/04/18 15:55:58;;;;;;;3.40;1.90;;;;;;;;;;4963823;28;20567;-85
2022/04/18 15:59:02;;;;;;;3.00;1.30;;;;;;;;;;4951979;28;20183;-85
2022/04/18 16:02:09;;;;;;;1.10;1.00;;;;;;;;;;4962871;28;20234;-85
2022/04/18 16:05:16;;;;;;;3.17;1.27;;;;;;;;;;4962682;28;20198;-88
2022/04/18 16:08:21;;;;;;;1.67;1.30;;;;;;;;;;4963199;28;20179;-88
2022/04/18 16:11:24;;;;;;;2.27;1.37;;;;;;;;;;4962574;28;20179;-88
2022/04/18 16:14:29;;;;;;;1.60;1.23;;;;;;;;;;4965737;28;20665;-88
2022/04/18 16:17:33;;;;;;;7.90;2.90;;;;;;;;;;4966597;28;20174;-88
2022/04/18 16:20:41;;;;;;;5.37;1.50;;;;;;;;;;4966812;28;20178;-89
2022/04/18 16:23:46;;;;;;;1.43;1.10;;;;;;;;;;4966749;28;20219;-90
2022/04/18 16:26:50;;;;;;;2.83;1.47;;;;;;;;;;4966245;28;20198;-90
2022/04/18 16:33:16;;;;;;;2.57;1.73;;;;;;;;;;4966049;28;20210;-87
2022/04/18 16:36:21;;;;;;;1.83;1.30;;;;;;;;;;4988433;28;20527;-90
2022/04/18 16:39:25;;;;;;;2.03;1.20;;;;;;;;;;4977478;28;20638;-90
2022/04/18 16:45:52;;;;;;;4.00;1.40;;;;;;;;;;4965960;28;20179;-89
2022/04/18 16:48:56;;;;;;;1.93;1.40;;;;;;;;;;4966648;28;20182;-88
2022/04/18 16:52:01;;;;;;;2.10;1.20;;;;;;;;;;4955985;28;20218;-89
2022/04/18 16:55:05;;;;;;;2.27;1.10;;;;;;;;;;4955628;28;20179;-88
2022/04/18 16:58:10;;;;;;;4.57;1.57;;;;;;;;;;4966421;28;20533;-89
2022/04/18 17:01:14;;;;;;;3.20;1.40;;;;;;;;;;4966761;28;20511;-88
2022/04/18 17:04:19;;;;;;;2.57;1.10;;;;;;;;;;4966648;28;20182;-88
2022/04/18 17:07:23;;;;;;;1.63;1.20;;;;;;;;;;4966099;28;20630;-88
2022/04/18 17:10:27;;;;;;;2.13;1.40;;;;;;;;;;4965985;28;20182;-89
2022/04/18 17:13:31;;;;;;;2.83;1.47;;;;;;;;;;4965375;28;20210;-88
2022/04/18 17:16:35;;;;;;;1.73;1.10;;;;;;;;;;4966074;28;20187;-88
2022/04/18 17:19:40;;;;;;;5.03;1.10;;;;;;;;;;4954454;28;20203;-88
2022/04/18 17:22:44;;;;;;;3.00;1.00;;;;;;;;;;4965348;28;20230;-88
2022/04/18 17:25:49;;;;;;;1.67;1.30;;;;;;;;;;4965262;28;20190;-88
2022/04/18 17:28:53;;;;;;;1.73;1.20;;;;;;;;;;4976853;28;20179;-88
2022/04/18 17:31:57;;;;;;;2.37;1.43;;;;;;;;;;4965765;28;20218;-88
2022/04/18 17:35:03;;;;;;;3.27;1.17;;;;;;;;;;4965583;28;20182;-88
2022/04/18 17:38:07;;;;;;;1.10;1.00;;;;;;;;;;4965687;28;20187;-88
2022/04/18 17:41:11;;;;;;;2.30;1.10;;;;;;;;;;4965667;28;20187;-88
2022/04/18 17:44:15;;;;;;;1.33;1.23;;;;;;;;;;4954487;28;20183;-88
2022/04/18 17:47:19;;;;;;;21.37;13.17;;;;;;;;;;4965549;28;20187;-89
2022/04/18 17:50:24;;;;;;;18.77;12.03;;;;;;;;;;4953962;28;20194;-88
2022/04/18 17:56:51;;;;;;;2.20;1.07;;;;;;;;;;4976472;28;20179;-88
2022/04/18 17:59:55;;;;;;;1.10;0.90;;;;;;;;;;4965155;28;20183;-88
2022/04/18 18:02:59;;;;;;;1.03;0.90;;;;;;;;;;4953797;28;20230;-88
2022/04/18 18:06:03;;;;;;;2.17;0.97;;;;;;;;;;4964885;28;20179;-88
2022/04/18 18:09:08;;;;;;;1.27;1.00;;;;;;;;;;4953696;28;20182;-88
2022/04/18 18:12:12;;;;;;;2.30;0.90;;;;;;;;;;4976599;28;20218;-87
2022/04/18 18:15:16;;;;;;;1.10;0.90;;;;;;;;;;4954178;28;20630;-88
2022/04/18 18:18:21;;;;;;;1.53;1.00;;;;;;;;;;4964718;28;20183;-88
2022/04/18 18:21:24;;;;;;;2.77;1.10;;;;;;;;;;4964683;28;20199;-88
2022/04/18 18:24:29;;;;;;;2.00;1.00;;;;;;;;;;4953653;28;20179;-88
2022/04/18 18:27:34;;;;;;;1.37;1.07;;;;;;;;;;4964132;28;20638;-88
2022/04/18 18:30:42;;;;;;;1.53;1.00;;;;;;;;;;4965233;28;20187;-88
2022/04/18 18:33:46;;;;;;;1.57;0.90;;;;;;;;;;4964561;28;20214;-88
2022/04/18 18:36:50;;;;;;;2.83;1.07;;;;;;;;;;4963619;28;20183;-88
2022/04/18 18:39:55;;;;;;;1.30;0.90;;;;;;;;;;4987138;28;20182;-88
2022/04/18 18:42:59;;;;;;;1.57;1.00;;;;;;;;;;4952773;28;20579;-88
2022/04/18 18:46:03;;;;;;;1.70;0.90;;;;;;;;;;4964538;28;20183;-88
2022/04/18 18:49:07;;;;;;;1.23;1.00;;;;;;;;;;4964604;28;20183;-88
2022/04/18 18:52:24;;;;;;;2.80;1.00;;;;;;;;;;4975289;28;20214;-88
2022/04/18 18:55:28;;;;;;;1.60;1.07;;;;;;;;;;4964510;28;20183;-88
2022/04/18 18:58:32;;;;;;;1.37;1.20;;;;;;;;;;4964605;28;20523;-87
2022/04/18 19:01:37;;;;;;;1.10;0.87;;;;;;;;;;4964752;28;20183;-88
2022/04/18 19:04:41;;;;;;;1.77;1.10;;;;;;;;;;4964586;28;20638;-87
2022/04/18 19:07:46;;;;;;;4.17;1.10;;;;;;;;;;4975297;28;20183;-88
2022/04/18 19:10:50;;;;;;;1.50;0.90;;;;;;;;;;4953269;28;20202;-88
2022/04/18 19:13:54;;;;;;;5.43;1.20;;;;;;;;;;4964289;28;20214;-87
2022/04/18 19:27:06;;;;;;;1.90;0.90;;;;;;;;;;4975546;28;20178;-87
2022/04/18 19:30:11;;;;;;;1.10;0.90;;;;;;;;;;4975946;28;20187;-88
2022/04/18 19:33:15;;;;;;;3.87;1.00;;;;;;;;;;4975051;28;20222;-87
2022/04/18 19:36:21;;;;;;;2.30;1.20;;;;;;;;;;4975157;28;20202;-87
2022/04/18 19:39:25;;;;;;;1.30;1.10;;;;;;;;;;4963630;28;20629;-88